Time;durP1;ratioP1;P1;durP2;ratioP2;P2;SDS_P1;SDS_P2;PMS_P1;PMS_P2;Temp;Humidity;BMP_temperature;BMP_pressure;BME280_temperature;BME280_humidity;BME280_pressure;Samples;Min_cycle;Max_cycle;Signal;HPM_P1;HPM_P2
2024/01/15 00:01:58;;;;;;;14.27;7.80;;;1.00;99.90;;;;;;5054543;28;20202;-79
2024/01/15 00:04:27;;;;;;;12.07;7.38;;;1.00;99.90;;;;;;5050714;28;20236;-81
2024/01/15 00:06:55;;;;;;;11.73;7.03;;;1.00;99.90;;;;;;5040708;28;20268;-81
2024/01/15 00:09:23;;;;;;;10.05;7.10;;;0.90;99.90;;;;;;5043520;28;20216;-80
2024/01/15 00:11:52;;;;;;;17.10;8.35;;;1.00;99.90;;;;;;5043648;28;20214;-78
2024/01/15 00:14:20;;;;;;;13.15;7.50;;;0.90;99.90;;;;;;5045096;28;20289;-79
2024/01/15 00:16:50;;;;;;;10.60;7.75;;;0.90;99.90;;;;;;5041593;28;20304;-77
2024/01/15 00:19:20;;;;;;;12.98;7.43;;;1.00;99.90;;;;;;5039427;28;20826;-78
2024/01/15 00:21:48;;;;;;;12.15;6.43;;;1.00;99.90;;;;;;5040382;28;20208;-77
2024/01/15 00:24:17;;;;;;;15.18;7.60;;;1.00;99.90;;;;;;5047612;28;20240;-80
2024/01/15 00:26:45;;;;;;;11.40;6.25;;;1.00;99.90;;;;;;5049197;28;20216;-78
2024/01/15 00:29:14;;;;;;;13.48;7.13;;;1.00;99.90;;;;;;5045093;28;20201;-77
2024/01/15 00:31:42;;;;;;;11.85;7.18;;;1.00;99.90;;;;;;5049965;28;20198;-79
2024/01/15 00:34:10;;;;;;;15.30;7.20;;;1.00;99.90;;;;;;5053561;28;20221;-76
2024/01/15 00:36:40;;;;;;;12.25;7.10;;;1.10;99.90;;;;;;5051446;28;20229;-78
2024/01/15 00:39:10;;;;;;;14.68;7.70;;;1.00;99.90;;;;;;5050586;28;20216;-78
2024/01/15 00:41:39;;;;;;;12.88;7.43;;;1.00;99.90;;;;;;5051242;28;20210;-79
2024/01/15 00:44:07;;;;;;;17.27;8.38;;;1.00;99.90;;;;;;5044099;28;20225;-78
2024/01/15 00:46:44;;;;;;;10.10;6.22;;;1.10;99.90;;;;;;5039919;28;20221;-79
2024/01/15 00:49:13;;;;;;;14.02;7.28;;;1.00;99.90;;;;;;5043940;28;20193;-78
2024/01/15 00:51:44;;;;;;;9.80;6.38;;;1.00;99.90;;;;;;5037252;28;20252;-77
2024/01/15 00:54:12;;;;;;;12.20;7.32;;;0.90;99.90;;;;;;5045796;28;20204;-79
2024/01/15 00:56:40;;;;;;;13.18;7.82;;;0.90;99.90;;;;;;5043133;28;20212;-78
2024/01/15 00:59:10;;;;;;;13.27;6.65;;;1.00;99.90;;;;;;5049145;28;20222;-80
2024/01/15 01:01:42;;;;;;;9.65;6.57;;;1.00;99.90;;;;;;5041524;28;20268;-77
2024/01/15 01:04:11;;;;;;;13.98;6.80;;;0.90;99.90;;;;;;5052263;28;20224;-78
2024/01/15 01:06:39;;;;;;;12.50;7.80;;;0.90;99.90;;;;;;5053133;28;20680;-79
2024/01/15 01:09:09;;;;;;;13.93;7.15;;;1.00;99.90;;;;;;5047460;28;20205;-80
2024/01/15 01:11:38;;;;;;;14.90;8.35;;;1.10;99.90;;;;;;5044669;28;20240;-78
2024/01/15 01:14:06;;;;;;;9.77;6.57;;;1.10;99.90;;;;;;5048652;28;20279;-79
2024/01/15 01:16:38;;;;;;;12.73;6.45;;;1.10;99.90;;;;;;5052523;28;20214;-79
2024/01/15 01:19:07;;;;;;;13.00;7.43;;;1.10;99.90;;;;;;5050916;28;20324;-80
2024/01/15 01:21:36;;;;;;;11.40;8.25;;;1.00;99.90;;;;;;5047371;28;20201;-79
2024/01/15 01:24:05;;;;;;;10.73;6.38;;;1.10;99.90;;;;;;5043573;28;20730;-79
2024/01/15 01:26:34;;;;;;;9.95;5.80;;;1.10;99.90;;;;;;5055030;28;20216;-80
2024/01/15 01:29:03;;;;;;;10.85;6.55;;;1.10;99.90;;;;;;5046601;28;20194;-79
2024/01/15 01:31:31;;;;;;;12.88;7.85;;;1.10;99.90;;;;;;5044614;28;20220;-77
2024/01/15 01:34:00;;;;;;;14.32;7.22;;;1.10;99.90;;;;;;5049512;28;20198;-78
2024/01/15 01:36:28;;;;;;;12.30;6.50;;;1.10;99.90;;;;;;5052217;28;20201;-76
2024/01/15 01:38:56;;;;;;;12.75;6.18;;;1.10;99.90;;;;;;5045901;28;20209;-78
2024/01/15 01:41:25;;;;;;;11.20;6.55;;;1.10;99.90;;;;;;5047103;28;20229;-77
2024/01/15 01:43:55;;;;;;;12.10;6.32;;;1.00;99.90;;;;;;5046383;28;20190;-78
2024/01/15 01:46:23;;;;;;;12.88;8.57;;;1.00;99.90;;;;;;5043428;28;20222;-81
2024/01/15 01:48:52;;;;;;;10.25;6.28;;;1.10;99.90;;;;;;5038108;28;20202;-78
2024/01/15 01:51:22;;;;;;;14.38;7.97;;;1.10;99.90;;;;;;5046687;28;20257;-80
2024/01/15 01:53:52;;;;;;;10.68;6.35;;;1.10;99.90;;;;;;5041143;28;20690;-78
2024/01/15 01:56:20;;;;;;;11.40;6.72;;;1.10;99.90;;;;;;5039504;28;20189;-81
2024/01/15 01:58:49;;;;;;;12.55;7.30;;;1.10;99.90;;;;;;5040042;28;20214;-78
2024/01/15 02:01:20;;;;;;;11.95;6.95;;;1.10;99.90;;;;;;5042366;28;20228;-80
2024/01/15 02:03:49;;;;;;;8.88;6.25;;;1.00;99.90;;;;;;5038689;28;20284;-78
2024/01/15 02:06:17;;;;;;;8.20;5.60;;;1.20;99.90;;;;;;5042721;28;20636;-80
2024/01/15 02:08:46;;;;;;;12.98;7.25;;;1.20;99.90;;;;;;5043129;28;20197;-77
2024/01/15 02:11:14;;;;;;;13.10;6.53;;;1.10;99.90;;;;;;5044434;28;20197;-79
2024/01/15 02:13:42;;;;;;;10.18;6.00;;;1.10;99.90;;;;;;5047576;28;20345;-78
2024/01/15 02:16:10;;;;;;;14.13;7.47;;;1.10;99.90;;;;;;5037789;28;20697;-78
2024/01/15 02:18:44;;;;;;;10.90;5.88;;;1.10;99.90;;;;;;5041606;28;20216;-79
2024/01/15 02:21:12;;;;;;;12.27;8.00;;;1.10;99.90;;;;;;5039499;28;20226;-79
2024/01/15 02:23:42;;;;;;;12.30;7.03;;;1.00;99.90;;;;;;5048569;28;20205;-79
2024/01/15 02:26:11;;;;;;;12.30;7.93;;;1.00;99.90;;;;;;5052831;28;20218;-79
2024/01/15 02:28:39;;;;;;;13.30;8.00;;;1.00;99.90;;;;;;5046470;28;20285;-80
2024/01/15 02:31:07;;;;;;;10.00;6.68;;;1.10;99.90;;;;;;5051944;28;20275;-79
2024/01/15 02:33:36;;;;;;;11.65;6.53;;;1.10;99.90;;;;;;5057194;28;20202;-79
2024/01/15 02:36:04;;;;;;;11.52;6.50;;;1.10;99.90;;;;;;5054822;28;20235;-80
2024/01/15 02:38:33;;;;;;;9.77;6.63;;;1.00;99.90;;;;;;5051836;28;20209;-78
2024/01/15 02:41:02;;;;;;;11.35;7.18;;;1.10;99.90;;;;;;5056247;28;20217;-80
2024/01/15 02:43:31;;;;;;;13.07;7.03;;;1.10;99.90;;;;;;5054579;28;20204;-80
2024/01/15 02:45:59;;;;;;;9.73;6.63;;;1.00;99.90;;;;;;5050014;28;20214;-80
2024/01/15 02:48:28;;;;;;;8.07;5.90;;;1.10;99.90;;;;;;5047561;28;20205;-80
2024/01/15 02:50:56;;;;;;;13.30;6.47;;;1.10;99.90;;;;;;5051908;28;20204;-80
2024/01/15 02:53:25;;;;;;;13.82;6.85;;;1.00;99.90;;;;;;5054772;28;20560;-79
2024/01/15 02:55:53;;;;;;;11.70;6.97;;;1.10;99.90;;;;;;5053579;28;20320;-80
2024/01/15 02:58:22;;;;;;;10.63;6.40;;;1.00;99.90;;;;;;5043663;28;20202;-81
2024/01/15 03:00:50;;;;;;;12.50;5.18;;;1.10;99.90;;;;;;5051826;28;20217;-79
2024/01/15 03:03:19;;;;;;;13.70;6.63;;;1.10;99.90;;;;;;5054155;28;20209;-78
2024/01/15 03:05:47;;;;;;;8.88;5.68;;;1.00;99.90;;;;;;5053924;28;20217;-79
2024/01/15 03:08:15;;;;;;;11.23;6.00;;;1.10;99.90;;;;;;5055539;28;20193;-80
2024/01/15 03:10:44;;;;;;;9.93;6.28;;;1.10;99.90;;;;;;5040920;28;20278;-77
2024/01/15 03:13:12;;;;;;;9.52;5.60;;;1.00;99.90;;;;;;5046352;28;20202;-78
2024/01/15 03:15:42;;;;;;;9.63;5.93;;;1.00;99.90;;;;;;5045947;28;20631;-81
2024/01/15 03:18:10;;;;;;;12.23;6.75;;;1.00;99.90;;;;;;5043607;28;20289;-79
2024/01/15 03:20:39;;;;;;;13.68;7.13;;;1.00;99.90;;;;;;5053617;28;20201;-78
2024/01/15 03:23:08;;;;;;;12.27;6.38;;;1.00;99.90;;;;;;5047888;28;20865;-81
2024/01/15 03:25:36;;;;;;;13.07;7.22;;;0.90;99.90;;;;;;5050931;28;20225;-78
2024/01/15 03:28:04;;;;;;;14.02;7.35;;;0.90;99.90;;;;;;5052237;28;20651;-79
2024/01/15 03:30:33;;;;;;;12.20;7.75;;;1.00;99.90;;;;;;5051289;28;20305;-79
2024/01/15 03:33:03;;;;;;;9.60;6.38;;;0.90;99.90;;;;;;5045122;28;20217;-79
2024/01/15 03:35:31;;;;;;;9.77;6.60;;;1.00;99.90;;;;;;5054082;28;20793;-79
2024/01/15 03:37:59;;;;;;;9.18;5.28;;;1.00;99.90;;;;;;5049001;28;20667;-80
2024/01/15 03:40:28;;;;;;;12.00;6.25;;;1.00;99.90;;;;;;5050703;28;20208;-79
2024/01/15 03:42:56;;;;;;;9.10;6.40;;;1.00;99.90;;;;;;5047803;28;20217;-79
2024/01/15 03:45:24;;;;;;;11.77;6.72;;;1.00;99.90;;;;;;5048830;28;20221;-78
2024/01/15 03:47:53;;;;;;;13.63;6.47;;;1.10;99.90;;;;;;5045795;28;20839;-77
2024/01/15 03:50:22;;;;;;;9.65;5.82;;;1.10;99.90;;;;;;5047954;28;20197;-79
2024/01/15 03:52:50;;;;;;;10.75;6.35;;;1.20;99.90;;;;;;5050389;28;20212;-78
2024/01/15 03:55:19;;;;;;;9.80;6.30;;;1.30;99.90;;;;;;5054097;28;20268;-81
2024/01/15 03:57:47;;;;;;;13.30;6.60;;;1.30;99.90;;;;;;5047735;28;20216;-79
2024/01/15 04:00:17;;;;;;;13.38;8.05;;;1.20;99.90;;;;;;5049013;28;20627;-78
2024/01/15 04:02:45;;;;;;;11.15;6.80;;;1.30;99.90;;;;;;5045329;28;20220;-78
2024/01/15 04:05:14;;;;;;;13.02;7.72;;;1.30;99.90;;;;;;5048899;28;20227;-79
2024/01/15 04:07:43;;;;;;;16.15;7.65;;;1.30;99.90;;;;;;5048970;28;20207;-80
2024/01/15 04:10:11;;;;;;;12.90;7.40;;;1.30;99.90;;;;;;5049532;28;20202;-80
2024/01/15 04:12:39;;;;;;;9.80;6.20;;;1.30;99.90;;;;;;5043177;28;20229;-78
2024/01/15 04:15:08;;;;;;;10.55;7.22;;;1.40;99.90;;;;;;5047735;28;20223;-78
2024/01/15 04:17:36;;;;;;;15.00;7.90;;;1.40;99.90;;;;;;5045885;28;20288;-79
2024/01/15 04:20:06;;;;;;;12.27;7.65;;;1.40;99.90;;;;;;5052759;28;20190;-79
2024/01/15 04:22:35;;;;;;;13.27;8.05;;;1.30;99.90;;;;;;5049097;28;20228;-80
2024/01/15 04:25:05;;;;;;;13.38;7.55;;;1.30;99.90;;;;;;5054968;28;20238;-78
2024/01/15 04:27:33;;;;;;;12.70;6.05;;;1.40;99.90;;;;;;5050482;28;20206;-81
2024/01/15 04:30:02;;;;;;;10.98;6.60;;;1.40;99.90;;;;;;5046152;28;20310;-79
2024/01/15 04:32:30;;;;;;;12.73;6.93;;;1.40;99.90;;;;;;5050659;28;20193;-79
2024/01/15 04:34:59;;;;;;;10.43;5.90;;;1.40;99.90;;;;;;5053923;28;20849;-79
2024/01/15 04:37:27;;;;;;;12.82;6.95;;;1.40;99.90;;;;;;5050899;28;20186;-79
2024/01/15 04:39:57;;;;;;;12.05;6.63;;;1.40;99.90;;;;;;5049221;28;20235;-78
2024/01/15 04:42:27;;;;;;;13.35;7.57;;;1.30;99.90;;;;;;5049564;28;20205;-80
2024/01/15 04:44:55;;;;;;;11.93;6.93;;;1.30;99.90;;;;;;5048002;28;20221;-79
2024/01/15 04:47:23;;;;;;;10.50;7.40;;;1.30;99.90;;;;;;5041839;28;20337;-78
2024/01/15 04:49:52;;;;;;;10.40;7.47;;;1.40;99.90;;;;;;5042752;28;20198;-78
2024/01/15 04:52:20;;;;;;;12.05;6.88;;;1.30;99.90;;;;;;5047377;28;20193;-80
2024/01/15 04:54:49;;;;;;;16.80;7.88;;;1.30;99.90;;;;;;5040370;28;20757;-78
2024/01/15 04:57:17;;;;;;;14.80;8.48;;;1.30;99.90;;;;;;5041356;28;20445;-78
2024/01/15 04:59:47;;;;;;;10.43;7.20;;;1.30;99.90;;;;;;5043778;28;20237;-77
2024/01/15 05:02:15;;;;;;;8.35;5.82;;;1.30;99.90;;;;;;5041907;28;20708;-81
2024/01/15 05:04:44;;;;;;;11.40;7.25;;;1.30;99.90;;;;;;5051440;28;20309;-79
2024/01/15 05:07:12;;;;;;;13.43;6.68;;;1.30;99.90;;;;;;5045471;28;20663;-76
2024/01/15 05:09:40;;;;;;;13.60;7.22;;;1.30;99.90;;;;;;5045206;28;20691;-79
2024/01/15 05:12:09;;;;;;;15.63;8.05;;;1.40;99.90;;;;;;5045695;28;20197;-81
2024/01/15 05:14:37;;;;;;;18.60;7.93;;;1.40;99.90;;;;;;5054305;28;20221;-78
2024/01/15 05:17:07;;;;;;;13.43;7.50;;;1.30;99.90;;;;;;5048567;28;20529;-84
2024/01/15 05:19:38;;;;;;;9.80;6.97;;;1.30;99.90;;;;;;5048892;28;20281;-82
2024/01/15 05:22:07;;;;;;;7.30;6.20;;;1.30;99.90;;;;;;5048091;28;20233;-80
2024/01/15 05:24:35;;;;;;;11.45;7.45;;;1.30;99.90;;;;;;5040965;28;20249;-81
2024/01/15 05:27:04;;;;;;;14.93;9.15;;;1.40;99.90;;;;;;5048777;28;20205;-79
2024/01/15 05:29:33;;;;;;;11.55;7.55;;;1.40;99.90;;;;;;5042123;28;20193;-79
2024/01/15 05:32:01;;;;;;;9.32;6.75;;;1.30;99.90;;;;;;5045726;28;20647;-77
2024/01/15 05:34:31;;;;;;;12.77;7.20;;;1.30;99.90;;;;;;5040905;28;20238;-78
2024/01/15 05:37:00;;;;;;;11.38;8.32;;;1.30;99.90;;;;;;5040567;28;20198;-76
2024/01/15 05:39:28;;;;;;;20.15;9.73;;;1.30;99.90;;;;;;5044817;28;20224;-77
2024/01/15 05:41:56;;;;;;;13.45;7.78;;;1.30;99.90;;;;;;5042477;28;20220;-76
2024/01/15 05:44:25;;;;;;;12.25;6.65;;;1.10;99.90;;;;;;5046768;28;20209;-77
2024/01/15 05:46:54;;;;;;;11.75;6.95;;;1.00;99.90;;;;;;5050916;28;20208;-78
2024/01/15 05:49:22;;;;;;;14.80;7.63;;;1.20;99.90;;;;;;5044995;28;20272;-77
2024/01/15 05:51:52;;;;;;;9.82;6.38;;;0.90;99.90;;;;;;5041430;28;20237;-77
2024/01/15 05:54:20;;;;;;;10.75;6.43;;;1.10;99.90;;;;;;5044285;28;20233;-78
2024/01/15 05:56:48;;;;;;;11.35;6.90;;;1.10;99.90;;;;;;5045719;28;20284;-75
2024/01/15 05:59:17;;;;;;;14.20;7.13;;;1.20;99.90;;;;;;5039540;28;20193;-76
2024/01/15 06:01:45;;;;;;;11.10;6.65;;;1.10;99.90;;;;;;5045341;28;20626;-78
2024/01/15 06:04:13;;;;;;;11.60;6.18;;;1.10;99.90;;;;;;5049639;28;20217;-76
2024/01/15 06:06:42;;;;;;;11.45;6.85;;;1.10;99.90;;;;;;5047304;28;20246;-76
2024/01/15 06:09:11;;;;;;;10.23;7.07;;;1.20;99.90;;;;;;5048164;28;20655;-78
2024/01/15 06:11:39;;;;;;;10.52;7.40;;;1.10;99.90;;;;;;5047456;28;20702;-79
2024/01/15 06:14:08;;;;;;;10.27;6.07;;;1.20;99.90;;;;;;5052410;28;20984;-76
2024/01/15 06:16:36;;;;;;;9.00;6.85;;;1.10;99.90;;;;;;5048319;28;20278;-75
2024/01/15 06:19:04;;;;;;;8.23;6.47;;;1.00;99.90;;;;;;5054232;28;20288;-78
2024/01/15 06:21:33;;;;;;;11.20;6.80;;;1.10;1.00;;;;;;5046624;28;20222;-76
2024/01/15 06:24:01;;;;;;;12.02;6.13;;;1.10;99.90;;;;;;5045582;28;20213;-76
2024/01/15 06:26:31;;;;;;;11.93;6.53;;;1.00;99.90;;;;;;5051179;28;20213;-76
2024/01/15 06:29:00;;;;;;;13.45;7.15;;;1.10;1.00;;;;;;5053368;28;20193;-76
2024/01/15 06:31:28;;;;;;;12.38;7.93;;;1.20;99.90;;;;;;5050190;28;20205;-77
2024/01/15 06:33:57;;;;;;;9.73;6.45;;;1.20;99.90;;;;;;5056348;28;20888;-76
2024/01/15 06:36:25;;;;;;;8.82;6.10;;;1.10;99.90;;;;;;5056330;28;20633;-77
2024/01/15 06:38:53;;;;;;;7.55;6.43;;;0.90;99.90;;;;;;5056845;28;20201;-75
2024/01/15 06:41:22;;;;;;;8.88;6.68;;;0.90;99.90;;;;;;5056473;28;20204;-76
2024/01/15 06:43:51;;;;;;;9.82;5.80;;;1.00;99.90;;;;;;5045876;28;20232;-76
2024/01/15 06:46:21;;;;;;;10.63;5.95;;;0.80;99.90;;;;;;5054355;28;20225;-78
2024/01/15 06:48:50;;;;;;;8.77;6.57;;;1.00;99.90;;;;;;5051128;28;20670;-75
2024/01/15 06:51:18;;;;;;;8.27;5.90;;;1.00;99.90;;;;;;5048463;28;20197;-75
2024/01/15 06:53:47;;;;;;;12.35;6.88;;;1.10;1.00;;;;;;5051884;28;20284;-76
2024/01/15 06:56:15;;;;;;;13.13;6.53;;;1.00;1.00;;;;;;5058761;28;20222;-77
2024/01/15 06:58:43;;;;;;;10.45;7.45;;;1.10;1.00;;;;;;5048467;28;20567;-76
2024/01/15 07:01:13;;;;;;;10.43;6.20;;;1.10;99.90;;;;;;5052026;28;20225;-76
2024/01/15 07:03:41;;;;;;;12.00;7.00;;;1.00;1.00;;;;;;5054113;28;20233;-76
2024/01/15 07:06:10;;;;;;;12.38;6.53;;;1.00;1.00;;;;;;5051789;28;20218;-78
2024/01/15 07:08:38;;;;;;;12.07;6.90;;;0.90;99.90;;;;;;5055838;28;20254;-78
2024/01/15 07:11:07;;;;;;;12.25;6.85;;;1.00;1.00;;;;;;5053491;28;20210;-76
2024/01/15 07:13:35;;;;;;;16.30;9.00;;;0.90;1.00;;;;;;5050753;28;20209;-76
2024/01/15 07:16:03;;;;;;;12.95;7.30;;;0.80;99.90;;;;;;5055411;28;20217;-76
2024/01/15 07:18:33;;;;;;;10.13;6.68;;;0.80;99.90;;;;;;5054516;28;20280;-79
2024/01/15 07:21:02;;;;;;;9.98;6.50;;;0.80;99.90;;;;;;5054054;28;20228;-77
2024/01/15 07:23:32;;;;;;;10.55;7.90;;;1.00;99.90;;;;;;5051138;28;20699;-75
2024/01/15 07:26:00;;;;;;;10.05;5.78;;;1.10;1.00;;;;;;5055180;28;20252;-76
2024/01/15 07:28:30;;;;;;;8.45;6.50;;;1.00;99.90;;;;;;5045502;28;20205;-77
2024/01/15 07:30:58;;;;;;;9.38;6.85;;;1.10;1.00;;;;;;5040933;28;20201;-78
2024/01/15 07:33:26;;;;;;;14.00;7.57;;;1.00;99.90;;;;;;5039929;28;20739;-76
2024/01/15 07:35:55;;;;;;;7.60;6.35;;;0.90;99.90;;;;;;5037428;28;20340;-76
2024/01/15 07:38:26;;;;;;;12.85;5.97;;;1.00;99.90;;;;;;5040203;28;20217;-77
2024/01/15 07:40:55;;;;;;;8.48;5.20;;;1.00;99.90;;;;;;5040211;28;20201;-77
2024/01/15 07:43:23;;;;;;;9.63;5.90;;;1.10;99.90;;;;;;5044659;28;20220;-76
2024/01/15 07:45:51;;;;;;;10.50;7.22;;;1.10;99.90;;;;;;5039889;28;20245;-76
2024/01/15 07:48:20;;;;;;;11.27;6.57;;;1.20;99.90;;;;;;5043188;28;20677;-77
2024/01/15 07:50:48;;;;;;;11.20;6.82;;;1.20;99.90;;;;;;5040445;28;20218;-77
2024/01/15 07:53:18;;;;;;;9.73;6.68;;;1.20;99.90;;;;;;5038770;28;20205;-76
2024/01/15 07:55:47;;;;;;;8.65;5.75;;;1.10;99.90;;;;;;5042170;28;20239;-76
2024/01/15 07:58:15;;;;;;;9.00;5.32;;;1.20;99.90;;;;;;5046248;28;20228;-77
2024/01/15 08:00:44;;;;;;;9.52;6.00;;;1.20;99.90;;;;;;5046816;28;20205;-76
2024/01/15 08:03:13;;;;;;;12.80;6.32;;;1.30;99.90;;;;;;5046494;28;20210;-77
2024/01/15 08:05:41;;;;;;;8.85;5.88;;;1.30;99.90;;;;;;5034690;28;20307;-76
2024/01/15 08:08:10;;;;;;;7.63;5.15;;;1.40;99.90;;;;;;5037336;28;20223;-76
2024/01/15 08:10:39;;;;;;;8.45;5.95;;;1.30;99.90;;;;;;5039409;28;20198;-77
2024/01/15 08:13:09;;;;;;;9.65;6.18;;;1.30;99.90;;;;;;5040180;28;20229;-76
2024/01/15 08:15:37;;;;;;;8.18;6.10;;;1.30;99.90;;;;;;5036964;28;20603;-77
2024/01/15 08:18:06;;;;;;;11.18;5.95;;;1.40;99.90;;;;;;5039029;28;20197;-76
2024/01/15 08:20:34;;;;;;;11.05;6.53;;;1.40;99.90;;;;;;5032074;28;20281;-75
2024/01/15 08:23:03;;;;;;;10.27;5.35;;;1.40;99.90;;;;;;5036184;28;20201;-75
2024/01/15 08:25:31;;;;;;;9.25;5.10;;;1.40;99.90;;;;;;5052522;28;20228;-76
2024/01/15 08:28:01;;;;;;;6.70;5.50;;;1.40;99.90;;;;;;5043170;28;20201;-77
2024/01/15 08:30:29;;;;;;;6.05;4.95;;;1.50;99.90;;;;;;5042908;28;20216;-74
2024/01/15 08:32:59;;;;;;;11.10;5.13;;;1.50;99.90;;;;;;5053231;28;20190;-75
2024/01/15 08:35:35;;;;;;;8.07;5.15;;;1.60;99.90;;;;;;5049049;28;20244;-75
2024/01/15 08:38:04;;;;;;;9.95;5.25;;;1.60;99.90;;;;;;5046483;28;20201;-76
2024/01/15 08:40:32;;;;;;;6.70;5.15;;;1.60;99.90;;;;;;5050501;28;20205;-76
2024/01/15 08:43:03;;;;;;;5.40;4.80;;;1.60;99.90;;;;;;5042917;28;21767;-76
2024/01/15 08:45:31;;;;;;;8.57;4.13;;;1.70;99.90;;;;;;5035557;28;20229;-76
2024/01/15 08:48:00;;;;;;;6.40;4.45;;;1.80;99.90;;;;;;5050417;28;20924;-76
2024/01/15 08:50:30;;;;;;;5.47;4.90;;;1.80;99.90;;;;;;5039818;28;20208;-76
2024/01/15 08:52:58;;;;;;;6.93;4.50;;;1.80;99.90;;;;;;5053106;28;20201;-77
2024/01/15 08:55:27;;;;;;;6.57;4.25;;;1.80;99.90;;;;;;5053209;28;20284;-77
2024/01/15 08:57:55;;;;;;;7.32;4.10;;;1.90;99.90;;;;;;5047957;28;20220;-78
2024/01/15 09:00:25;;;;;;;4.47;4.07;;;1.90;99.90;;;;;;5051871;28;20224;-76
2024/01/15 09:02:53;;;;;;;4.28;3.97;;;1.80;99.90;;;;;;5051043;28;20212;-78
2024/01/15 09:05:21;;;;;;;4.28;3.88;;;1.80;99.90;;;;;;5047156;28;20237;-76
2024/01/15 09:07:51;;;;;;;5.80;3.88;;;1.80;99.90;;;;;;5053319;28;20205;-77
2024/01/15 09:10:21;;;;;;;4.85;4.03;;;1.80;99.90;;;;;;5052404;28;20221;-77
2024/01/15 09:12:50;;;;;;;4.78;4.22;;;1.80;99.90;;;;;;5052186;28;20200;-75
2024/01/15 09:15:19;;;;;;;7.15;4.30;;;1.80;99.90;;;;;;5045976;28;20787;-78
2024/01/15 09:17:48;;;;;;;5.13;3.72;;;1.90;99.90;;;;;;5052109;28;20206;-78
2024/01/15 09:20:18;;;;;;;5.10;3.53;;;1.90;99.90;;;;;;5050327;28;20205;-76
2024/01/15 09:22:46;;;;;;;5.28;3.63;;;1.80;99.90;;;;;;5052548;28;20201;-76
2024/01/15 09:25:15;;;;;;;4.30;3.83;;;1.80;99.90;;;;;;5047130;28;20217;-76
2024/01/15 09:27:43;;;;;;;7.70;3.88;;;1.80;99.90;;;;;;5052224;28;20213;-75
2024/01/15 09:30:13;;;;;;;6.15;4.00;;;1.80;99.90;;;;;;5050524;28;20215;-77
2024/01/15 09:32:42;;;;;;;7.53;4.25;;;1.70;99.90;;;;;;5049812;28;20274;-77
2024/01/15 09:35:12;;;;;;;4.97;3.70;;;1.80;99.90;;;;;;5048303;28;20218;-77
2024/01/15 09:37:41;;;;;;;5.65;3.85;;;1.90;99.90;;;;;;5043725;28;20284;-76
2024/01/15 09:40:16;;;;;;;6.13;4.45;;;1.90;99.90;;;;;;5043338;28;20192;-75
2024/01/15 09:42:45;;;;;;;7.68;4.13;;;1.90;99.90;;;;;;5048349;28;20201;-76
2024/01/15 09:45:15;;;;;;;4.95;3.53;;;2.00;99.90;;;;;;5043848;28;20276;-78
2024/01/15 09:47:44;;;;;;;4.38;3.72;;;2.10;99.90;;;;;;5048933;28;20202;-77
2024/01/15 09:50:16;;;;;;;7.03;4.32;;;2.10;99.90;;;;;;5050546;28;20822;-76
2024/01/15 09:52:45;;;;;;;9.10;4.85;;;2.10;99.90;;;;;;5041703;28;20320;-76
2024/01/15 09:55:16;;;;;;;5.15;4.43;;;2.20;99.90;;;;;;5047783;28;20263;-78
2024/01/15 09:57:46;;;;;;;9.00;4.40;;;2.20;99.90;;;;;;5051213;28;20225;-76
2024/01/15 10:00:18;;;;;;;15.05;5.75;;;2.20;99.90;;;;;;5043199;28;20296;-77
2024/01/15 10:02:47;;;;;;;5.40;3.97;;;2.30;99.90;;;;;;5050460;28;20205;-76
2024/01/15 10:05:17;;;;;;;3.33;3.03;;;2.30;99.90;;;;;;5044780;28;20225;-77
2024/01/15 10:07:47;;;;;;;7.72;3.65;;;2.20;99.90;;;;;;5045401;28;20201;-76
2024/01/15 10:10:15;;;;;;;6.10;4.40;;;2.20;99.90;;;;;;5049557;28;20209;-75
2024/01/15 10:12:44;;;;;;;9.45;4.00;;;2.20;99.90;;;;;;5050642;28;20282;-76
2024/01/15 10:15:13;;;;;;;3.97;3.55;;;2.20;99.90;;;;;;5050300;28;20267;-77
2024/01/15 10:17:42;;;;;;;9.68;4.18;;;2.20;99.90;;;;;;5047999;28;20252;-76
2024/01/15 10:20:12;;;;;;;4.88;4.32;;;2.20;99.90;;;;;;5046477;28;20201;-75
2024/01/15 10:22:43;;;;;;;6.55;4.78;;;2.20;99.90;;;;;;5045718;28;20193;-76
2024/01/15 10:25:13;;;;;;;5.55;5.05;;;2.20;99.90;;;;;;5047186;28;20221;-76
2024/01/15 10:27:42;;;;;;;7.32;4.60;;;2.20;99.90;;;;;;5052974;28;20288;-78
2024/01/15 10:30:13;;;;;;;4.65;4.00;;;2.30;99.90;;;;;;5053067;28;20206;-77
2024/01/15 10:32:42;;;;;;;5.20;4.28;;;2.30;99.90;;;;;;5047143;28;20260;-78
2024/01/15 10:35:11;;;;;;;5.93;3.67;;;2.30;99.90;;;;;;5054925;28;20300;-77
2024/01/15 10:37:39;;;;;;;6.00;4.30;;;2.30;99.90;;;;;;5047577;28;20236;-78
2024/01/15 10:40:10;;;;;;;4.80;3.88;;;2.30;99.90;;;;;;5050298;28;20246;-77
2024/01/15 10:42:38;;;;;;;6.50;4.25;;;2.40;99.90;;;;;;5054501;28;20198;-77
2024/01/15 10:45:08;;;;;;;8.40;5.50;;;2.20;99.90;;;;;;5048877;28;20217;-76
2024/01/15 10:47:38;;;;;;;4.18;3.88;;;2.30;99.90;;;;;;5051964;28;22233;-75
2024/01/15 10:50:08;;;;;;;4.78;3.45;;;2.20;99.90;;;;;;5054317;28;20201;-78
2024/01/15 10:52:37;;;;;;;7.68;4.45;;;2.20;99.90;;;;;;5046480;28;20254;-76
2024/01/15 10:55:07;;;;;;;4.38;3.90;;;2.10;99.90;;;;;;5047959;28;20217;-76
2024/01/15 10:57:46;;;;;;;4.80;4.25;;;2.20;99.90;;;;;;5049080;28;20200;-76
2024/01/15 11:00:15;;;;;;;7.05;5.10;;;2.20;99.90;;;;;;5046492;28;20202;-77
2024/01/15 11:02:44;;;;;;;6.35;5.00;;;2.30;99.90;;;;;;5048718;28;20209;-77
2024/01/15 11:05:13;;;;;;;7.68;4.15;;;2.30;99.90;;;;;;5048418;28;20649;-77
2024/01/15 11:07:42;;;;;;;6.72;5.20;;;2.30;99.90;;;;;;5048852;28;20293;-79
2024/01/15 11:10:41;;;;;;;4.35;4.00;;;2.30;99.90;;;;;;5056267;28;20193;-78
2024/01/15 11:13:14;;;;;;;5.22;4.63;;;2.20;99.90;;;;;;5050576;28;20671;-77
2024/01/15 11:15:59;;;;;;;7.97;4.53;;;2.20;99.90;;;;;;5055219;28;20218;-78
2024/01/15 11:18:29;;;;;;;6.55;5.00;;;2.10;99.90;;;;;;5052857;28;20193;-77
2024/01/15 11:21:27;;;;;;;5.22;4.43;;;2.10;99.90;;;;;;5051489;28;20562;-78
2024/01/15 11:23:57;;;;;;;5.57;4.47;;;2.10;99.90;;;;;;5043092;28;20238;-77
2024/01/15 11:26:35;;;;;;;7.57;4.53;;;2.00;99.90;;;;;;5043304;28;20627;-75
2024/01/15 11:29:06;;;;;;;7.75;5.10;;;2.10;99.90;;;;;;5035035;28;20205;-76
2024/01/15 11:31:58;;;;;;;5.93;4.03;;;2.10;99.90;;;;;;5042615;28;20566;-77
2024/01/15 11:34:51;;;;;;;7.15;4.32;;;2.10;99.90;;;;;;5055605;28;20664;-78
2024/01/15 11:37:20;;;;;;;6.93;5.20;;;2.10;99.90;;;;;;5049003;28;20205;-78
2024/01/15 11:39:49;;;;;;;7.05;4.80;;;2.20;99.90;;;;;;5032923;28;20216;-77
2024/01/15 11:42:18;;;;;;;9.38;5.15;;;2.20;99.90;;;;;;5034604;28;20202;-76
2024/01/15 11:44:48;;;;;;;9.70;4.88;;;2.30;99.90;;;;;;5035636;28;20314;-76
2024/01/15 11:47:22;;;;;;;4.82;4.15;;;2.10;99.90;;;;;;5037406;28;20218;-77
2024/01/15 11:50:02;;;;;;;4.72;4.13;;;2.10;99.90;;;;;;5042554;28;20201;-77
2024/01/15 11:52:34;;;;;;;4.57;3.85;;;2.20;99.90;;;;;;5042346;28;20209;-76
2024/01/15 11:55:20;;;;;;;5.13;4.22;;;2.20;99.90;;;;;;5043013;28;20399;-79
2024/01/15 11:57:51;;;;;;;9.93;6.32;;;2.20;99.90;;;;;;5034723;28;20765;-77
2024/01/15 12:00:23;;;;;;;5.50;4.53;;;2.10;1.00;;;;;;5042844;28;20336;-76
2024/01/15 12:02:52;;;;;;;5.63;3.90;;;2.10;1.00;;;;;;5049682;28;21022;-77
2024/01/15 12:05:21;;;;;;;8.93;4.50;;;2.20;1.00;;;;;;5037699;28;20224;-76
2024/01/15 12:07:51;;;;;;;7.28;5.20;;;2.20;1.00;;;;;;5034828;28;20667;-77
2024/01/15 12:10:21;;;;;;;7.07;4.10;;;2.20;99.90;;;;;;5036486;28;20718;-76
2024/01/15 12:12:59;;;;;;;10.35;4.75;;;2.20;1.00;;;;;;5034741;28;20298;-78
2024/01/15 12:15:30;;;;;;;7.70;5.05;;;2.10;1.00;;;;;;5043269;28;20826;-76
2024/01/15 12:18:00;;;;;;;8.07;5.07;;;2.10;1.00;;;;;;5036834;28;20194;-76
2024/01/15 12:20:29;;;;;;;9.05;5.75;;;2.10;1.00;;;;;;5035274;28;20284;-78
2024/01/15 12:22:58;;;;;;;6.18;4.65;;;2.10;1.00;;;;;;5048045;28;20277;-77
2024/01/15 12:25:32;;;;;;;5.72;4.95;;;2.00;1.00;;;;;;5046353;28;20225;-77
2024/01/15 12:28:01;;;;;;;6.53;4.80;;;2.10;1.00;;;;;;5035507;28;20242;-77
2024/01/15 12:30:32;;;;;;;7.18;5.93;;;2.10;1.00;;;;;;5033440;28;20244;-82
2024/01/15 12:33:03;;;;;;;7.30;5.93;;;2.00;1.00;;;;;;5048243;28;20227;-78
2024/01/15 12:35:32;;;;;;;7.00;5.47;;;2.00;1.00;;;;;;5052253;28;20217;-78
2024/01/15 12:38:02;;;;;;;6.93;5.10;;;2.10;1.00;;;;;;5047383;28;20215;-76
2024/01/15 12:40:32;;;;;;;8.85;6.63;;;2.10;1.00;;;;;;5048070;28;20201;-76
2024/01/15 12:43:01;;;;;;;6.85;5.70;;;2.20;1.00;;;;;;5052748;28;20209;-77
2024/01/15 12:45:31;;;;;;;6.68;5.88;;;2.10;1.00;;;;;;5043755;28;20298;-77
2024/01/15 12:48:00;;;;;;;8.43;5.35;;;2.10;1.00;;;;;;5054029;28;20202;-77
2024/01/15 12:50:29;;;;;;;7.47;5.85;;;2.10;42.50;;;;;;5049723;28;20212;-78
2024/01/15 12:52:59;;;;;;;6.40;5.55;;;2.10;99.90;;;;;;5042042;28;20213;-76
2024/01/15 12:55:28;;;;;;;6.45;5.75;;;2.00;99.90;;;;;;5039318;28;20239;-77
2024/01/15 12:57:56;;;;;;;15.95;7.35;;;2.10;99.90;;;;;;5044969;28;20253;-77
2024/01/15 13:00:25;;;;;;;6.15;5.47;;;2.10;99.90;;;;;;5033418;28;21437;-77
2024/01/15 13:02:57;;;;;;;6.57;5.28;;;2.10;1.00;;;;;;5048152;28;20289;-77
2024/01/15 13:05:28;;;;;;;6.78;5.50;;;2.10;99.90;;;;;;5050053;28;20224;-76